Agoura, CA

10:32 PM PST on March 05, 2015 (GMT -0800)
Conejo View | Change Station
CLOSE
Current Station
Personal Weather Station
Location: Agoura Hills, CA
Elevation: 932 ft
Nearby Weather Stations

Elev 932 ft 34.15 °N, 118.75 °W | Updated 5 minutes ago

Clear
Clear
46.0 °F
Feels Like 46 °F
N
0.0
Wind Variable Wind from ESE

Today
High -- | Low -- °F
--% Chance of Precip.
Yesterday
High -- | Low -- °F
Precip. -- in
6:18 AM 5:54 PM
Full, 100% visible
Pressure 30.17 in
Visibility 10.0 miles
Clouds Clear
Windchill 46 °F
Dew Point 35 °F
Humidity 66%
Rainfall in
Snow Depth Not available.
UV 0 out of 12
Pollen 9.10 out of 12
Air Quality Not available.
Flu Activity Not available.
METAR KVNY 060551Z AUTO 36010KT 10SM CLR 17/M06 A3018 RMK AO2 SLP214 T01721061 10233 20139 52002 TSNO

More Conditions Fewer Conditions

Pressure 30.17 in
Visibility 10.0 miles
Clouds Clear
Windchill 46 °F
Dew Point 35 °F
Humidity 66%
Rainfall in
Snow Depth Not available.
UV 0 out of 12
Pollen 9.10 out of 12
Air Quality Not available.
Flu Activity Not available.
METAR KVNY 060551Z AUTO 36010KT 10SM CLR 17/M06 A3018 RMK AO2 SLP214 T01721061 10233 20139 52002 TSNO

More Conditions Fewer Conditions

10-Day Weather Forecast

Almanac

Astronomy

Mar. 05, 2015 Rise Set
Actual Time
Civil Twilight
Nautical Twilight
Astronomical Twilight
Moon
Length of Visible Light
Length of Day
Tomorrow will be .
, % of the Moon is Illuminated

Today's Extremes

State Highs State Lows

Community

WunderPhotos

Upload Photos

1,803,195 photos uploaded!

WunderBlogs® & News

Nearby

Air Quality

  Air Quality AQ Index Pollutant
Not available.

Snow Depth

Station Depth Elevation

Earthquake Activity

City Distance Mag. Time & Date
Minimum magnitude displayed is 2.5.

Coastal Water Temperatures

Place Temperature

Nearby Weather Stations